DTTZ/TOE METAR and TAF weather

Enter ICAO airport designator
Station Type Date Time Source
DTTZ METAR 2020/01/18 21:00 UTC NOAA

DTTZ 182100Z 25006KT 9999 SCT030 11/03 Q1027 NOSIG


Station Type Date Time Source
DTTZ Decoded METAR 2020/01/18 21:00 UTC NOAA

Tozeur, Tunisia (DTTZ) 33-55N 008-06E 93M
Jan 18, 2020 - 04:00 PM EST / 2020.01.18 2100 UTC
Wind: from the WSW (250 degrees) at 7 MPH (6 KT):0
Visibility: greater than 7 mile(s):0
Sky conditions: partly cloudy
Temperature: 51 F (11 C)
Dew Point: 37 F (3 C)
Relative Humidity: 57%
Pressure (altimeter): 30.33 in. Hg (1027 hPa)
ob: DTTZ 182100Z 25006KT 9999 SCT030 11/03 Q1027 NOSIG
cycle: 21

Station Type Date Time Source
DTTZ TAF 2020/01/18 18:39 UTC NOAA

TAF DTTZ 181700Z 1818/1918 28005KT 9999 FEW030 PROB40
TEMPO 1912/1918 17010KT

Example: see airport list